sensor_id;sensor_type;location;lat;lon;timestamp;P1;durP1;ratioP1;P2;durP2;ratioP2
26034;SDS011;13809;48.632;11.576;2023-11-19T00:00:42;1.53;;;1.43;;
26034;SDS011;13809;48.632;11.576;2023-11-19T00:05:55;1.10;;;1.10;;
26034;SDS011;13809;48.632;11.576;2023-11-19T00:10:58;1.50;;;1.40;;
26034;SDS011;13809;48.632;11.576;2023-11-19T00:16:02;1.40;;;1.30;;
26034;SDS011;13809;48.632;11.576;2023-11-19T00:21:08;1.13;;;1.03;;
26034;SDS011;13809;48.632;11.576;2023-11-19T00:26:11;1.10;;;1.10;;
26034;SDS011;13809;48.632;11.576;2023-11-19T00:31:16;1.10;;;1.10;;
26034;SDS011;13809;48.632;11.576;2023-11-19T00:36:21;1.30;;;1.20;;
26034;SDS011;13809;48.632;11.576;2023-11-19T00:41:25;7.93;;;4.93;;
26034;SDS011;13809;48.632;11.576;2023-11-19T00:46:28;7.30;;;4.27;;
26034;SDS011;13809;48.632;11.576;2023-11-19T00:51:34;2.20;;;1.87;;
26034;SDS011;13809;48.632;11.576;2023-11-19T00:56:37;1.60;;;1.50;;
26034;SDS011;13809;48.632;11.576;2023-11-19T01:01:41;1.23;;;1.20;;
26034;SDS011;13809;48.632;11.576;2023-11-19T01:06:45;1.27;;;1.20;;
26034;SDS011;13809;48.632;11.576;2023-11-19T01:11:50;1.20;;;1.20;;
26034;SDS011;13809;48.632;11.576;2023-11-19T01:16:53;2.20;;;1.50;;
26034;SDS011;13809;48.632;11.576;2023-11-19T01:21:58;1.97;;;1.87;;
26034;SDS011;13809;48.632;11.576;2023-11-19T01:27:01;2.00;;;1.80;;
26034;SDS011;13809;48.632;11.576;2023-11-19T01:32:05;1.80;;;1.70;;
26034;SDS011;13809;48.632;11.576;2023-11-19T01:37:10;1.70;;;1.60;;
26034;SDS011;13809;48.632;11.576;2023-11-19T01:42:15;1.50;;;1.40;;
26034;SDS011;13809;48.632;11.576;2023-11-19T01:47:19;1.30;;;1.20;;
26034;SDS011;13809;48.632;11.576;2023-11-19T01:52:23;1.60;;;1.30;;
26034;SDS011;13809;48.632;11.576;2023-11-19T01:57:27;1.43;;;1.33;;
26034;SDS011;13809;48.632;11.576;2023-11-19T02:02:31;1.60;;;1.50;;
26034;SDS011;13809;48.632;11.576;2023-11-19T02:07:36;1.40;;;1.40;;
26034;SDS011;13809;48.632;11.576;2023-11-19T02:12:39;1.63;;;1.53;;
26034;SDS011;13809;48.632;11.576;2023-11-19T02:17:44;1.90;;;1.80;;
26034;SDS011;13809;48.632;11.576;2023-11-19T02:22:49;2.20;;;1.67;;
26034;SDS011;13809;48.632;11.576;2023-11-19T02:27:54;1.43;;;1.33;;
26034;SDS011;13809;48.632;11.576;2023-11-19T02:33:01;1.60;;;1.50;;
26034;SDS011;13809;48.632;11.576;2023-11-19T02:38:07;2.10;;;2.00;;
26034;SDS011;13809;48.632;11.576;2023-11-19T02:43:12;2.37;;;2.27;;
26034;SDS011;13809;48.632;11.576;2023-11-19T02:48:15;2.40;;;2.20;;
26034;SDS011;13809;48.632;11.576;2023-11-19T02:53:18;2.27;;;2.10;;
26034;SDS011;13809;48.632;11.576;2023-11-19T02:58:24;2.23;;;2.13;;
26034;SDS011;13809;48.632;11.576;2023-11-19T03:03:29;2.30;;;2.20;;
26034;SDS011;13809;48.632;11.576;2023-11-19T03:08:40;2.60;;;2.50;;
26034;SDS011;13809;48.632;11.576;2023-11-19T03:13:45;2.70;;;2.50;;
26034;SDS011;13809;48.632;11.576;2023-11-19T03:18:49;2.60;;;2.40;;
26034;SDS011;13809;48.632;11.576;2023-11-19T03:23:52;2.77;;;2.57;;
26034;SDS011;13809;48.632;11.576;2023-11-19T03:28:56;2.40;;;2.30;;
26034;SDS011;13809;48.632;11.576;2023-11-19T03:33:59;2.50;;;2.40;;
26034;SDS011;13809;48.632;11.576;2023-11-19T03:39:03;2.60;;;2.40;;
26034;SDS011;13809;48.632;11.576;2023-11-19T03:44:07;3.00;;;2.80;;
26034;SDS011;13809;48.632;11.576;2023-11-19T03:49:11;2.47;;;2.37;;
26034;SDS011;13809;48.632;11.576;2023-11-19T03:54:14;2.93;;;2.73;;
26034;SDS011;13809;48.632;11.576;2023-11-19T03:59:18;2.83;;;2.63;;
26034;SDS011;13809;48.632;11.576;2023-11-19T04:04:23;2.90;;;2.70;;
26034;SDS011;13809;48.632;11.576;2023-11-19T04:09:26;2.80;;;2.60;;
26034;SDS011;13809;48.632;11.576;2023-11-19T04:14:31;2.53;;;2.43;;
26034;SDS011;13809;48.632;11.576;2023-11-19T04:19:34;2.60;;;2.40;;
26034;SDS011;13809;48.632;11.576;2023-11-19T04:24:37;2.17;;;2.07;;
26034;SDS011;13809;48.632;11.576;2023-11-19T04:29:43;2.50;;;2.30;;
26034;SDS011;13809;48.632;11.576;2023-11-19T04:34:47;2.17;;;2.07;;
26034;SDS011;13809;48.632;11.576;2023-11-19T04:39:50;2.23;;;2.13;;
26034;SDS011;13809;48.632;11.576;2023-11-19T04:44:55;2.20;;;2.10;;
26034;SDS011;13809;48.632;11.576;2023-11-19T04:49:58;2.30;;;2.20;;
26034;SDS011;13809;48.632;11.576;2023-11-19T04:55:01;2.70;;;2.50;;
26034;SDS011;13809;48.632;11.576;2023-11-19T05:00:07;2.50;;;2.40;;
26034;SDS011;13809;48.632;11.576;2023-11-19T05:05:15;2.57;;;2.27;;
26034;SDS011;13809;48.632;11.576;2023-11-19T05:10:19;2.77;;;2.60;;
26034;SDS011;13809;48.632;11.576;2023-11-19T05:15:23;2.70;;;2.60;;
26034;SDS011;13809;48.632;11.576;2023-11-19T05:20:26;2.20;;;2.10;;
26034;SDS011;13809;48.632;11.576;2023-11-19T05:25:30;1.43;;;1.33;;
26034;SDS011;13809;48.632;11.576;2023-11-19T05:30:34;1.00;;;1.00;;
26034;SDS011;13809;48.632;11.576;2023-11-19T05:35:38;1.00;;;1.00;;
26034;SDS011;13809;48.632;11.576;2023-11-19T05:40:41;1.63;;;0.90;;
26034;SDS011;13809;48.632;11.576;2023-11-19T05:45:46;0.90;;;0.90;;
26034;SDS011;13809;48.632;11.576;2023-11-19T05:50:50;1.00;;;1.00;;
26034;SDS011;13809;48.632;11.576;2023-11-19T05:55:53;0.90;;;0.90;;
26034;SDS011;13809;48.632;11.576;2023-11-19T06:00:59;1.30;;;0.90;;
26034;SDS011;13809;48.632;11.576;2023-11-19T06:06:04;0.80;;;0.80;;
26034;SDS011;13809;48.632;11.576;2023-11-19T06:11:09;1.33;;;0.90;;
26034;SDS011;13809;48.632;11.576;2023-11-19T06:16:17;1.10;;;1.10;;
26034;SDS011;13809;48.632;11.576;2023-11-19T06:21:20;1.40;;;1.30;;
26034;SDS011;13809;48.632;11.576;2023-11-19T06:26:24;1.10;;;1.10;;
26034;SDS011;13809;48.632;11.576;2023-11-19T06:31:28;1.00;;;1.00;;
26034;SDS011;13809;48.632;11.576;2023-11-19T06:36:31;0.90;;;0.90;;
26034;SDS011;13809;48.632;11.576;2023-11-19T06:41:35;1.03;;;0.97;;
26034;SDS011;13809;48.632;11.576;2023-11-19T06:46:41;1.20;;;1.20;;
26034;SDS011;13809;48.632;11.576;2023-11-19T06:51:44;1.37;;;1.33;;
26034;SDS011;13809;48.632;11.576;2023-11-19T06:56:48;1.67;;;1.57;;
26034;SDS011;13809;48.632;11.576;2023-11-19T07:01:53;1.20;;;1.20;;
26034;SDS011;13809;48.632;11.576;2023-11-19T07:06:56;1.20;;;1.10;;
26034;SDS011;13809;48.632;11.576;2023-11-19T07:12:00;3.13;;;2.70;;
26034;SDS011;13809;48.632;11.576;2023-11-19T07:17:07;1.30;;;1.30;;
26034;SDS011;13809;48.632;11.576;2023-11-19T07:22:11;1.50;;;1.40;;
26034;SDS011;13809;48.632;11.576;2023-11-19T07:27:15;1.87;;;1.77;;
26034;SDS011;13809;48.632;11.576;2023-11-19T07:32:19;1.23;;;1.20;;
26034;SDS011;13809;48.632;11.576;2023-11-19T07:37:22;1.40;;;1.30;;
26034;SDS011;13809;48.632;11.576;2023-11-19T07:42:26;1.43;;;1.20;;
26034;SDS011;13809;48.632;11.576;2023-11-19T07:47:31;1.20;;;1.20;;
26034;SDS011;13809;48.632;11.576;2023-11-19T07:52:35;1.40;;;1.30;;
26034;SDS011;13809;48.632;11.576;2023-11-19T07:57:39;1.50;;;1.40;;
26034;SDS011;13809;48.632;11.576;2023-11-19T08:02:44;1.50;;;1.40;;
26034;SDS011;13809;48.632;11.576;2023-11-19T08:07:47;1.20;;;1.20;;
26034;SDS011;13809;48.632;11.576;2023-11-19T08:12:50;1.27;;;1.17;;
26034;SDS011;13809;48.632;11.576;2023-11-19T08:17:55;1.60;;;1.50;;
26034;SDS011;13809;48.632;11.576;2023-11-19T08:22:58;1.10;;;1.10;;
26034;SDS011;13809;48.632;11.576;2023-11-19T08:28:01;1.10;;;1.10;;
26034;SDS011;13809;48.632;11.576;2023-11-19T08:33:07;1.53;;;1.13;;
26034;SDS011;13809;48.632;11.576;2023-11-19T08:38:10;1.30;;;1.20;;
26034;SDS011;13809;48.632;11.576;2023-11-19T08:43:13;2.83;;;2.63;;
26034;SDS011;13809;48.632;11.576;2023-11-19T08:48:18;1.10;;;1.00;;
26034;SDS011;13809;48.632;11.576;2023-11-19T08:53:22;1.10;;;1.00;;
26034;SDS011;13809;48.632;11.576;2023-11-19T08:58:25;1.27;;;1.07;;
26034;SDS011;13809;48.632;11.576;2023-11-19T09:03:32;2.33;;;1.00;;
26034;SDS011;13809;48.632;11.576;2023-11-19T09:08:35;1.00;;;1.00;;
26034;SDS011;13809;48.632;11.576;2023-11-19T09:13:39;0.90;;;0.90;;
26034;SDS011;13809;48.632;11.576;2023-11-19T09:18:44;2.00;;;0.90;;
26034;SDS011;13809;48.632;11.576;2023-11-19T09:23:47;0.83;;;0.80;;
26034;SDS011;13809;48.632;11.576;2023-11-19T09:28:51;0.80;;;0.80;;
26034;SDS011;13809;48.632;11.576;2023-11-19T09:33:55;0.80;;;0.80;;
26034;SDS011;13809;48.632;11.576;2023-11-19T09:38:58;0.80;;;0.80;;
26034;SDS011;13809;48.632;11.576;2023-11-19T09:44:03;1.07;;;0.80;;
26034;SDS011;13809;48.632;11.576;2023-11-19T09:49:09;0.87;;;0.80;;
26034;SDS011;13809;48.632;11.576;2023-11-19T09:54:14;0.90;;;0.90;;
26034;SDS011;13809;48.632;11.576;2023-11-19T09:59:17;0.90;;;0.90;;
26034;SDS011;13809;48.632;11.576;2023-11-19T10:04:22;0.73;;;0.73;;
26034;SDS011;13809;48.632;11.576;2023-11-19T10:09:27;0.80;;;0.80;;
26034;SDS011;13809;48.632;11.576;2023-11-19T10:14:30;1.00;;;1.00;;
26034;SDS011;13809;48.632;11.576;2023-11-19T10:19:36;1.30;;;1.20;;
26034;SDS011;13809;48.632;11.576;2023-11-19T10:24:42;1.07;;;0.97;;
26034;SDS011;13809;48.632;11.576;2023-11-19T10:29:51;0.80;;;0.80;;
26034;SDS011;13809;48.632;11.576;2023-11-19T10:35:05;0.80;;;0.80;;
26034;SDS011;13809;48.632;11.576;2023-11-19T10:40:10;0.80;;;0.80;;
26034;SDS011;13809;48.632;11.576;2023-11-19T10:45:23;1.10;;;1.00;;
26034;SDS011;13809;48.632;11.576;2023-11-19T10:50:27;1.23;;;1.20;;
26034;SDS011;13809;48.632;11.576;2023-11-19T10:55:32;0.70;;;0.70;;
26034;SDS011;13809;48.632;11.576;2023-11-19T11:00:38;0.90;;;0.90;;
26034;SDS011;13809;48.632;11.576;2023-11-19T11:05:47;0.80;;;0.80;;
26034;SDS011;13809;48.632;11.576;2023-11-19T11:10:52;1.30;;;1.20;;
26034;SDS011;13809;48.632;11.576;2023-11-19T11:15:58;2.10;;;1.70;;
26034;SDS011;13809;48.632;11.576;2023-11-19T11:21:04;1.30;;;1.20;;
26034;SDS011;13809;48.632;11.576;2023-11-19T11:26:16;0.90;;;0.90;;
26034;SDS011;13809;48.632;11.576;2023-11-19T11:31:36;0.90;;;0.90;;
26034;SDS011;13809;48.632;11.576;2023-11-19T11:36:52;1.10;;;1.10;;
26034;SDS011;13809;48.632;11.576;2023-11-19T11:53:15;0.83;;;0.70;;
26034;SDS011;13809;48.632;11.576;2023-11-19T11:58:19;0.63;;;0.60;;
26034;SDS011;13809;48.632;11.576;2023-11-19T12:03:22;0.70;;;0.70;;
26034;SDS011;13809;48.632;11.576;2023-11-19T12:08:28;2.53;;;1.10;;
26034;SDS011;13809;48.632;11.576;2023-11-19T12:13:52;2.73;;;1.10;;
26034;SDS011;13809;48.632;11.576;2023-11-19T12:19:03;0.70;;;0.70;;
26034;SDS011;13809;48.632;11.576;2023-11-19T12:24:08;1.17;;;1.10;;
26034;SDS011;13809;48.632;11.576;2023-11-19T12:29:13;0.90;;;0.90;;
26034;SDS011;13809;48.632;11.576;2023-11-19T12:34:16;1.30;;;1.20;;
26034;SDS011;13809;48.632;11.576;2023-11-19T12:39:20;1.10;;;1.10;;
26034;SDS011;13809;48.632;11.576;2023-11-19T12:44:24;0.80;;;0.80;;
26034;SDS011;13809;48.632;11.576;2023-11-19T12:49:28;0.70;;;0.70;;
26034;SDS011;13809;48.632;11.576;2023-11-19T12:54:33;0.60;;;0.60;;
26034;SDS011;13809;48.632;11.576;2023-11-19T12:59:37;1.13;;;0.80;;
26034;SDS011;13809;48.632;11.576;2023-11-19T13:04:40;1.90;;;1.00;;
26034;SDS011;13809;48.632;11.576;2023-11-19T13:09:45;0.80;;;0.80;;
26034;SDS011;13809;48.632;11.576;2023-11-19T13:14:49;0.80;;;0.80;;
26034;SDS011;13809;48.632;11.576;2023-11-19T13:19:52;0.80;;;0.80;;
26034;SDS011;13809;48.632;11.576;2023-11-19T13:24:59;0.80;;;0.80;;
26034;SDS011;13809;48.632;11.576;2023-11-19T13:30:04;0.97;;;0.97;;
26034;SDS011;13809;48.632;11.576;2023-11-19T13:35:08;0.80;;;0.80;;
26034;SDS011;13809;48.632;11.576;2023-11-19T13:40:13;0.70;;;0.70;;
26034;SDS011;13809;48.632;11.576;2023-11-19T13:45:16;0.70;;;0.70;;
26034;SDS011;13809;48.632;11.576;2023-11-19T13:50:21;0.60;;;0.60;;
26034;SDS011;13809;48.632;11.576;2023-11-19T13:55:26;0.70;;;0.70;;
26034;SDS011;13809;48.632;11.576;2023-11-19T14:00:29;1.40;;;0.80;;
26034;SDS011;13809;48.632;11.576;2023-11-19T14:05:33;1.07;;;0.97;;
26034;SDS011;13809;48.632;11.576;2023-11-19T14:10:40;0.97;;;0.87;;
26034;SDS011;13809;48.632;11.576;2023-11-19T14:15:43;1.33;;;1.23;;
26034;SDS011;13809;48.632;11.576;2023-11-19T14:20:50;2.37;;;2.17;;
26034;SDS011;13809;48.632;11.576;2023-11-19T14:25:55;1.60;;;1.50;;
26034;SDS011;13809;48.632;11.576;2023-11-19T14:30:58;1.10;;;1.00;;
26034;SDS011;13809;48.632;11.576;2023-11-19T14:36:01;0.80;;;0.80;;
26034;SDS011;13809;48.632;11.576;2023-11-19T14:41:06;2.03;;;0.90;;
26034;SDS011;13809;48.632;11.576;2023-11-19T14:46:10;1.00;;;0.90;;
26034;SDS011;13809;48.632;11.576;2023-11-19T14:51:13;1.20;;;1.10;;
26034;SDS011;13809;48.632;11.576;2023-11-19T14:56:18;0.80;;;0.80;;
26034;SDS011;13809;48.632;11.576;2023-11-19T15:01:21;2.57;;;1.40;;
26034;SDS011;13809;48.632;11.576;2023-11-19T15:06:24;2.57;;;1.23;;
26034;SDS011;13809;48.632;11.576;2023-11-19T15:11:29;2.10;;;1.30;;
26034;SDS011;13809;48.632;11.576;2023-11-19T15:16:33;5.70;;;2.27;;
26034;SDS011;13809;48.632;11.576;2023-11-19T15:21:36;26.67;;;6.03;;
26034;SDS011;13809;48.632;11.576;2023-11-19T15:26:41;2.63;;;1.97;;
26034;SDS011;13809;48.632;11.576;2023-11-19T15:31:44;2.57;;;2.37;;
26034;SDS011;13809;48.632;11.576;2023-11-19T15:36:47;2.80;;;2.50;;
26034;SDS011;13809;48.632;11.576;2023-11-19T15:41:51;3.27;;;2.47;;
26034;SDS011;13809;48.632;11.576;2023-11-19T15:46:55;1.87;;;1.50;;
26034;SDS011;13809;48.632;11.576;2023-11-19T15:51:58;1.63;;;1.27;;
26034;SDS011;13809;48.632;11.576;2023-11-19T15:57:03;0.90;;;0.90;;
26034;SDS011;13809;48.632;11.576;2023-11-19T16:02:07;1.50;;;1.40;;
26034;SDS011;13809;48.632;11.576;2023-11-19T16:07:10;2.17;;;2.07;;
26034;SDS011;13809;48.632;11.576;2023-11-19T16:12:15;2.50;;;2.30;;
26034;SDS011;13809;48.632;11.576;2023-11-19T16:17:18;2.47;;;2.30;;
26034;SDS011;13809;48.632;11.576;2023-11-19T16:22:22;2.30;;;2.20;;
26034;SDS011;13809;48.632;11.576;2023-11-19T16:27:27;2.10;;;1.90;;
26034;SDS011;13809;48.632;11.576;2023-11-19T16:32:31;2.50;;;2.00;;
26034;SDS011;13809;48.632;11.576;2023-11-19T16:37:35;2.50;;;2.30;;
26034;SDS011;13809;48.632;11.576;2023-11-19T16:42:41;2.70;;;2.50;;
26034;SDS011;13809;48.632;11.576;2023-11-19T16:47:45;1.90;;;1.80;;
26034;SDS011;13809;48.632;11.576;2023-11-19T16:52:49;1.90;;;1.80;;
26034;SDS011;13809;48.632;11.576;2023-11-19T16:57:53;3.27;;;1.77;;
26034;SDS011;13809;48.632;11.576;2023-11-19T17:02:57;1.40;;;1.30;;
26034;SDS011;13809;48.632;11.576;2023-11-19T17:08:02;1.00;;;1.00;;
26034;SDS011;13809;48.632;11.576;2023-11-19T17:13:07;1.00;;;1.00;;
26034;SDS011;13809;48.632;11.576;2023-11-19T17:18:11;1.07;;;1.07;;
26034;SDS011;13809;48.632;11.576;2023-11-19T17:23:15;0.93;;;0.93;;
26034;SDS011;13809;48.632;11.576;2023-11-19T17:28:20;0.80;;;0.80;;
26034;SDS011;13809;48.632;11.576;2023-11-19T17:33:23;2.87;;;1.67;;
26034;SDS011;13809;48.632;11.576;2023-11-19T17:38:26;1.93;;;0.80;;
26034;SDS011;13809;48.632;11.576;2023-11-19T17:43:31;0.90;;;0.90;;
26034;SDS011;13809;48.632;11.576;2023-11-19T17:48:34;2.30;;;0.90;;
26034;SDS011;13809;48.632;11.576;2023-11-19T17:53:37;0.90;;;0.90;;
26034;SDS011;13809;48.632;11.576;2023-11-19T17:58:42;1.00;;;1.00;;
26034;SDS011;13809;48.632;11.576;2023-11-19T18:03:45;1.67;;;1.10;;
26034;SDS011;13809;48.632;11.576;2023-11-19T18:08:48;1.23;;;1.00;;
26034;SDS011;13809;48.632;11.576;2023-11-19T18:13:53;1.10;;;1.10;;
26034;SDS011;13809;48.632;11.576;2023-11-19T18:18:56;1.10;;;1.00;;
26034;SDS011;13809;48.632;11.576;2023-11-19T18:23:59;1.30;;;1.20;;
26034;SDS011;13809;48.632;11.576;2023-11-19T18:29:04;1.10;;;1.10;;
26034;SDS011;13809;48.632;11.576;2023-11-19T18:34:07;1.30;;;1.20;;
26034;SDS011;13809;48.632;11.576;2023-11-19T18:39:11;1.90;;;1.57;;
26034;SDS011;13809;48.632;11.576;2023-11-19T18:44:15;1.60;;;1.30;;
26034;SDS011;13809;48.632;11.576;2023-11-19T18:49:18;2.23;;;2.03;;
26034;SDS011;13809;48.632;11.576;2023-11-19T18:54:22;2.40;;;2.20;;
26034;SDS011;13809;48.632;11.576;2023-11-19T18:59:26;1.20;;;1.10;;
26034;SDS011;13809;48.632;11.576;2023-11-19T19:04:29;2.00;;;1.50;;
26034;SDS011;13809;48.632;11.576;2023-11-19T19:09:33;2.40;;;1.20;;
26034;SDS011;13809;48.632;11.576;2023-11-19T19:14:38;1.50;;;1.30;;
26034;SDS011;13809;48.632;11.576;2023-11-19T19:19:41;2.50;;;1.30;;
26034;SDS011;13809;48.632;11.576;2023-11-19T19:24:44;2.23;;;1.90;;
26034;SDS011;13809;48.632;11.576;2023-11-19T19:29:49;2.53;;;1.30;;
26034;SDS011;13809;48.632;11.576;2023-11-19T19:34:52;1.13;;;1.00;;
26034;SDS011;13809;48.632;11.576;2023-11-19T19:39:55;1.10;;;0.97;;
26034;SDS011;13809;48.632;11.576;2023-11-19T19:45:00;0.87;;;0.80;;
26034;SDS011;13809;48.632;11.576;2023-11-19T19:50:04;1.20;;;1.10;;
26034;SDS011;13809;48.632;11.576;2023-11-19T19:55:11;2.57;;;1.10;;
26034;SDS011;13809;48.632;11.576;2023-11-19T20:00:19;1.80;;;1.10;;
26034;SDS011;13809;48.632;11.576;2023-11-19T20:05:24;2.67;;;1.00;;
26034;SDS011;13809;48.632;11.576;2023-11-19T20:10:29;0.90;;;0.90;;
26034;SDS011;13809;48.632;11.576;2023-11-19T20:15:35;1.20;;;0.97;;
26034;SDS011;13809;48.632;11.576;2023-11-19T20:20:38;1.87;;;1.40;;
26034;SDS011;13809;48.632;11.576;2023-11-19T20:25:42;1.83;;;1.10;;
26034;SDS011;13809;48.632;11.576;2023-11-19T20:30:47;2.00;;;1.10;;
26034;SDS011;13809;48.632;11.576;2023-11-19T20:35:50;1.30;;;1.20;;
26034;SDS011;13809;48.632;11.576;2023-11-19T20:40:53;1.30;;;0.97;;
26034;SDS011;13809;48.632;11.576;2023-11-19T20:45:58;1.50;;;1.40;;
26034;SDS011;13809;48.632;11.576;2023-11-19T20:51:02;1.50;;;1.07;;
26034;SDS011;13809;48.632;11.576;2023-11-19T20:56:06;1.10;;;1.00;;
26034;SDS011;13809;48.632;11.576;2023-11-19T21:01:11;1.43;;;1.10;;
26034;SDS011;13809;48.632;11.576;2023-11-19T21:06:14;1.00;;;1.00;;
26034;SDS011;13809;48.632;11.576;2023-11-19T21:11:18;2.10;;;1.20;;
26034;SDS011;13809;48.632;11.576;2023-11-19T21:16:23;1.57;;;1.27;;
26034;SDS011;13809;48.632;11.576;2023-11-19T21:21:27;1.73;;;1.20;;
26034;SDS011;13809;48.632;11.576;2023-11-19T21:26:31;2.13;;;1.13;;
26034;SDS011;13809;48.632;11.576;2023-11-19T21:31:36;1.40;;;1.00;;
26034;SDS011;13809;48.632;11.576;2023-11-19T21:36:42;1.50;;;1.20;;
26034;SDS011;13809;48.632;11.576;2023-11-19T21:41:46;1.10;;;1.10;;
26034;SDS011;13809;48.632;11.576;2023-11-19T21:46:51;1.27;;;1.03;;
26034;SDS011;13809;48.632;11.576;2023-11-19T21:51:54;1.50;;;1.00;;
26034;SDS011;13809;48.632;11.576;2023-11-19T21:56:57;1.30;;;1.20;;
26034;SDS011;13809;48.632;11.576;2023-11-19T22:02:02;1.30;;;1.13;;
26034;SDS011;13809;48.632;11.576;2023-11-19T22:07:05;1.17;;;1.03;;
26034;SDS011;13809;48.632;11.576;2023-11-19T22:12:09;2.17;;;1.20;;
26034;SDS011;13809;48.632;11.576;2023-11-19T22:17:14;1.47;;;1.10;;
26034;SDS011;13809;48.632;11.576;2023-11-19T22:22:17;1.80;;;1.27;;
26034;SDS011;13809;48.632;11.576;2023-11-19T22:27:20;3.97;;;1.50;;
26034;SDS011;13809;48.632;11.576;2023-11-19T22:32:25;2.67;;;1.13;;
26034;SDS011;13809;48.632;11.576;2023-11-19T22:37:31;2.93;;;1.67;;
26034;SDS011;13809;48.632;11.576;2023-11-19T22:42:34;3.23;;;1.30;;
26034;SDS011;13809;48.632;11.576;2023-11-19T22:47:39;2.40;;;1.27;;
26034;SDS011;13809;48.632;11.576;2023-11-19T22:52:43;2.67;;;1.17;;
26034;SDS011;13809;48.632;11.576;2023-11-19T22:57:46;3.53;;;1.43;;
26034;SDS011;13809;48.632;11.576;2023-11-19T23:02:53;3.00;;;1.40;;
26034;SDS011;13809;48.632;11.576;2023-11-19T23:07:57;1.73;;;1.10;;
26034;SDS011;13809;48.632;11.576;2023-11-19T23:13:01;1.93;;;1.10;;
26034;SDS011;13809;48.632;11.576;2023-11-19T23:18:06;1.17;;;1.00;;
26034;SDS011;13809;48.632;11.576;2023-11-19T23:23:10;2.87;;;1.23;;
26034;SDS011;13809;48.632;11.576;2023-11-19T23:28:15;2.87;;;1.10;;
26034;SDS011;13809;48.632;11.576;2023-11-19T23:33:19;3.87;;;1.30;;
26034;SDS011;13809;48.632;11.576;2023-11-19T23:38:23;2.13;;;1.10;;
26034;SDS011;13809;48.632;11.576;2023-11-19T23:43:26;1.93;;;1.10;;
26034;SDS011;13809;48.632;11.576;2023-11-19T23:48:31;2.87;;;1.10;;
26034;SDS011;13809;48.632;11.576;2023-11-19T23:53:34;2.70;;;1.23;;
26034;SDS011;13809;48.632;11.576;2023-11-19T23:58:37;2.87;;;1.40;;
